^^
Station Historical Data
Daily Summary for June 29, 2017 Units:  Both    English   Metric
« Previous Day
Next Day »
Daily Weekly Monthly Yearly Custom
  High: Low: Average:
Temperature: 73.2 °F /  22.9 °C 46.2 °F /  7.9 °C 59.4 °F /  15.2 °C
Dew Point: 36.3 °F /  2.4 °C 21.6 °F /  -5.8 °C 27.9 °F /  -2.3 °C
Humidity: 44% 18% 31%
Wind Speed: 8.9mph /  14.3km/h - 1.6mph /  2.6km/h
Wind Gust: 20.0mph /  32.2km/h - -
Wind- - SE
Pressure: 30.37 in /  1028.3 hPa 30.24 in /  1023.9 hPa -
Precipitation: 0.00 in /  0 mm    
Historical Graphs
 
 
Tabular Data for June 29, 2017
Time Temperature Dew Point Pressure Wind Wind Speed Wind Gust Humidity Rainfall Rate (Hourly) solar Conditions
00:05 52.9 °F /  11.6 °C 21.6 °F /  -5.8 °C 30.36in /  1028hPa Calm   6.0mph /  9.7km/h 29% 0.00in /  0mm 0.0 W/m2
00:11 52.3 °F /  11.3 °C 21.7 °F /  -5.7 °C 30.36in /  1028hPa NE 0.9mph /  1.4km/h 3.0mph /  4.8km/h 30% 0.00in /  0mm 0.0 W/m2
00:17 52.2 °F /  11.2 °C 21.7 °F /  -5.7 °C 30.36in /  1028hPa NE 2.0mph /  3.2km/h 7.0mph /  11.3km/h 30% 0.00in /  0mm 0.0 W/m2
00:23 52.2 °F /  11.2 °C 21.7 °F /  -5.7 °C 30.35in /  1027.7hPa Calm   5.0mph /  8km/h 30% 0.00in /  0mm 0.0 W/m2
00:29 52.0 °F /  11.1 °C 21.6 °F /  -5.8 °C 30.35in /  1027.7hPa Calm   2.0mph /  3.2km/h 30% 0.00in /  0mm 0.0 W/m2
00:35 52.0 °F /  11.1 °C 21.6 °F /  -5.8 °C 30.35in /  1027.7hPa Calm   6.0mph /  9.7km/h 30% 0.00in /  0mm 0.0 W/m2
00:41 52.0 °F /  11.1 °C 21.6 °F /  -5.8 °C 30.35in /  1027.7hPa Calm   3.0mph /  4.8km/h 30% 0.00in /  0mm 0.0 W/m2
00:48 52.0 °F /  11.1 °C 21.6 °F /  -5.8 °C 30.35in /  1027.7hPa Calm   2.0mph /  3.2km/h 30% 0.00in /  0mm 0.0 W/m2
00:54 52.0 °F /  11.1 °C 21.6 °F /  -5.8 °C 30.34in /  1027.3hPa NE 0.9mph /  1.4km/h 5.0mph /  8km/h 30% 0.00in /  0mm 0.0 W/m2
01:00 52.0 °F /  11.1 °C 21.6 °F /  -5.8 °C 30.34in /  1027.3hPa Calm   4.0mph /  6.4km/h 30% 0.00in /  0mm 0.0 W/m2
01:06 52.0 °F /  11.1 °C 22.3 °F /  -5.4 °C 30.34in /  1027.3hPa NE 0.9mph /  1.4km/h 5.0mph /  8km/h 31% 0.00in /  0mm 0.0 W/m2
01:12 51.6 °F /  10.9 °C 21.9 °F /  -5.6 °C 30.34in /  1027.3hPa Calm   4.0mph /  6.4km/h 31% 0.00in /  0mm 0.0 W/m2
01:18 51.6 °F /  10.9 °C 21.9 °F /  -5.6 °C 30.34in /  1027.3hPa Calm   3.0mph /  4.8km/h 31% 0.00in /  0mm 0.0 W/m2
01:24 51.3 °F /  10.7 °C 21.6 °F /  -5.8 °C 30.34in /  1027.3hPa Calm   1.0mph /  1.6km/h 31% 0.00in /  0mm 0.0 W/m2
01:31 51.1 °F /  10.6 °C 22.3 °F /  -5.4 °C 30.33in /  1027hPa Calm   2.0mph /  3.2km/h 32% 0.00in /  0mm 0.0 W/m2
01:37 50.9 °F /  10.5 °C 22.1 °F /  -5.5 °C 30.33in /  1027hPa NE 0.9mph /  1.4km/h 7.0mph /  11.3km/h 32% 0.00in /  0mm 0.0 W/m2
01:43 50.7 °F /  10.4 °C 21.9 °F /  -5.6 °C 30.34in /  1027.3hPa East 4.0mph /  6.4km/h 4.0mph /  6.4km/h 32% 0.00in /  0mm 0.0 W/m2
01:49 50.7 °F /  10.4 °C 21.9 °F /  -5.6 °C 30.33in /  1027hPa Calm   4.0mph /  6.4km/h 32% 0.00in /  0mm 0.0 W/m2
01:55 50.5 °F /  10.3 °C 21.7 °F /  -5.7 °C 30.33in /  1027hPa Calm   4.0mph /  6.4km/h 32% 0.00in /  0mm 0.0 W/m2
02:01 50.4 °F /  10.2 °C 21.6 °F /  -5.8 °C 30.33in /  1027hPa NNE 0.9mph /  1.4km/h 3.0mph /  4.8km/h 32% 0.00in /  0mm 0.0 W/m2
02:08 50.2 °F /  10.1 °C 22.1 °F /  -5.5 °C 30.33in /  1027hPa East 2.0mph /  3.2km/h 4.0mph /  6.4km/h 33% 0.00in /  0mm 0.0 W/m2
02:14 50.2 °F /  10.1 °C 22.1 °F /  -5.5 °C 30.33in /  1027hPa Calm   2.0mph /  3.2km/h 33% 0.00in /  0mm 0.0 W/m2
02:20 50.0 °F /  10 °C 22.1 °F /  -5.5 °C 30.33in /  1027hPa NNE 0.9mph /  1.4km/h 3.0mph /  4.8km/h 33% 0.00in /  0mm 0.0 W/m2
02:26 50.0 °F /  10 °C 22.1 °F /  -5.5 °C 30.33in /  1027hPa ESE 0.9mph /  1.4km/h 3.0mph /  4.8km/h 33% 0.00in /  0mm 0.0 W/m2
02:32 50.2 °F /  10.1 °C 22.1 °F /  -5.5 °C 30.33in /  1027hPa NE 4.0mph /  6.4km/h 4.0mph /  6.4km/h 33% 0.00in /  0mm 0.0 W/m2
02:38 50.2 °F /  10.1 °C 22.1 °F /  -5.5 °C 30.33in /  1027hPa East 2.9mph /  4.7km/h 4.0mph /  6.4km/h 33% 0.00in /  0mm 0.0 W/m2
02:44 50.4 °F /  10.2 °C 22.3 °F /  -5.4 °C 30.33in /  1027hPa Calm   5.0mph /  8km/h 33% 0.00in /  0mm 0.0 W/m2
02:50 50.4 °F /  10.2 °C 22.3 °F /  -5.4 °C 30.33in /  1027hPa Calm   4.0mph /  6.4km/h 33% 0.00in /  0mm 0.0 W/m2
02:57 50.5 °F /  10.3 °C 22.5 °F /  -5.3 °C 30.33in /  1027hPa ENE 0.9mph /  1.4km/h 4.0mph /  6.4km/h 33% 0.00in /  0mm 0.0 W/m2
03:03 50.4 °F /  10.2 °C 22.3 °F /  -5.4 °C 30.33in /  1027hPa ENE 2.9mph /  4.7km/h 3.0mph /  4.8km/h 33% 0.00in /  0mm 0.0 W/m2
03:09 50.4 °F /  10.2 °C 22.3 °F /  -5.4 °C 30.34in /  1027.3hPa Calm   6.0mph /  9.7km/h 33% 0.00in /  0mm 0.0 W/m2
03:15 50.5 °F /  10.3 °C 22.5 °F /  -5.3 °C 30.34in /  1027.3hPa ENE 2.9mph /  4.7km/h 4.0mph /  6.4km/h 33% 0.00in /  0mm 0.0 W/m2
03:21 50.5 °F /  10.3 °C 22.5 °F /  -5.3 °C 30.34in /  1027.3hPa Calm   5.0mph /  8km/h 33% 0.00in /  0mm 0.0 W/m2
03:27 50.7 °F /  10.4 °C 22.6 °F /  -5.2 °C 30.34in /  1027.3hPa NE 2.0mph /  3.2km/h 8.0mph /  12.9km/h 33% 0.00in /  0mm 0.0 W/m2
03:33 50.9 °F /  10.5 °C 22.8 °F /  -5.1 °C 30.34in /  1027.3hPa Calm   1.0mph /  1.6km/h 33% 0.00in /  0mm 0.0 W/m2
03:40 50.9 °F /  10.5 °C 22.8 °F /  -5.1 °C 30.34in /  1027.3hPa Calm   4.0mph /  6.4km/h 33% 0.00in /  0mm 0.0 W/m2
03:46 50.9 °F /  10.5 °C 22.8 °F /  -5.1 °C 30.34in /  1027.3hPa Calm   3.0mph /  4.8km/h 33% 0.00in /  0mm 0.0 W/m2
03:52 51.1 °F /  10.6 °C 23.0 °F /  -5 °C 30.34in /  1027.3hPa Calm   1.0mph /  1.6km/h 33% 0.00in /  0mm 0.0 W/m2
03:58 50.7 °F /  10.4 °C 22.6 °F /  -5.2 °C 30.34in /  1027.3hPa Calm   4.0mph /  6.4km/h 33% 0.00in /  0mm 0.0 W/m2
04:04 50.7 °F /  10.4 °C 22.6 °F /  -5.2 °C 30.34in /  1027.3hPa Calm     33% 0.00in /  0mm 0.0 W/m2
04:10 50.5 °F /  10.3 °C 23.2 °F /  -4.9 °C 30.34in /  1027.3hPa Calm   2.0mph /  3.2km/h 34% 0.00in /  0mm 0.0 W/m2
04:16 50.4 °F /  10.2 °C 23.0 °F /  -5 °C 30.34in /  1027.3hPa Calm   1.0mph /  1.6km/h 34% 0.00in /  0mm 0.0 W/m2
04:22 50.4 °F /  10.2 °C 23.7 °F /  -4.6 °C 30.34in /  1027.3hPa Calm     35% 0.00in /  0mm 0.0 W/m2
04:28 50.0 °F /  10 °C 22.6 °F /  -5.2 °C 30.34in /  1027.3hPa Calm   2.0mph /  3.2km/h 34% 0.00in /  0mm 0.0 W/m2
04:35 49.8 °F /  9.9 °C 23.2 °F /  -4.9 °C 30.34in /  1027.3hPa Calm   2.0mph /  3.2km/h 35% 0.00in /  0mm 0.0 W/m2
04:41 49.6 °F /  9.8 °C 23.2 °F /  -4.9 °C 30.34in /  1027.3hPa Calm   2.0mph /  3.2km/h 35% 0.00in /  0mm 0.0 W/m2
04:47 49.5 °F /  9.7 °C 23.5 °F /  -4.7 °C 30.34in /  1027.3hPa Calm   1.0mph /  1.6km/h 36% 0.00in /  0mm 0.0 W/m2
04:53 49.5 °F /  9.7 °C 23.0 °F /  -5 °C 30.34in /  1027.3hPa Calm   1.0mph /  1.6km/h 35% 0.00in /  0mm 0.0 W/m2
04:59 49.5 °F /  9.7 °C 23.5 °F /  -4.7 °C 30.34in /  1027.3hPa Calm     36% 0.00in /  0mm 0.0 W/m2
05:05 49.3 °F /  9.6 °C 23.5 °F /  -4.7 °C 30.34in /  1027.3hPa Calm   1.0mph /  1.6km/h 36% 0.00in /  0mm 0.0 W/m2
05:11 49.3 °F /  9.6 °C 23.5 °F /  -4.7 °C 30.34in /  1027.3hPa Calm   2.0mph /  3.2km/h 36% 0.00in /  0mm 0.0 W/m2
05:17 49.1 °F /  9.5 °C 23.4 °F /  -4.8 °C 30.34in /  1027.3hPa Calm     36% 0.00in /  0mm 0.0 W/m2
05:23 48.9 °F /  9.4 °C 23.2 °F /  -4.9 °C 30.35in /  1027.7hPa Calm   1.0mph /  1.6km/h 36% 0.00in /  0mm 0.0 W/m2
05:29 48.9 °F /  9.4 °C 23.7 °F /  -4.6 °C 30.34in /  1027.3hPa Calm     37% 0.00in /  0mm 0.0 W/m2
05:36 48.9 °F /  9.4 °C 23.7 °F /  -4.6 °C 30.35in /  1027.7hPa Calm     37% 0.00in /  0mm 0.0 W/m2
05:42 48.9 °F /  9.4 °C 23.7 °F /  -4.6 °C 30.35in /  1027.7hPa Calm   2.0mph /  3.2km/h 37% 0.00in /  0mm 0.0 W/m2
05:48 48.9 °F /  9.4 °C 24.4 °F /  -4.2 °C 30.35in /  1027.7hPa Calm     38% 0.00in /  0mm 0.0 W/m2
05:54 48.6 °F /  9.2 °C 24.1 °F /  -4.4 °C 30.36in /  1028hPa Calm     38% 0.00in /  0mm 0.0 W/m2
06:00 48.0 °F /  8.9 °C 24.3 °F /  -4.3 °C 30.36in /  1028hPa Calm     39% 0.00in /  0mm 0.0 W/m2
06:06 47.5 °F /  8.6 °C 24.4 °F /  -4.2 °C 30.35in /  1027.7hPa Calm     40% 0.00in /  0mm 0.0 W/m2
06:12 46.9 °F /  8.3 °C 23.9 °F /  -4.5 °C 30.35in /  1027.7hPa Calm     40% 0.00in /  0mm 0.0 W/m2
06:19 46.6 °F /  8.1 °C 23.5 °F /  -4.7 °C 30.35in /  1027.7hPa Calm     40% 0.00in /  0mm 0.0 W/m2
06:25 46.2 °F /  7.9 °C 23.9 °F /  -4.5 °C 30.35in /  1027.7hPa Calm   5.0mph /  8km/h 41% 0.00in /  0mm 0.0 W/m2
06:31 46.6 °F /  8.1 °C 24.1 °F /  -4.4 °C 30.35in /  1027.7hPa East 2.0mph /  3.2km/h 2.0mph /  3.2km/h 41% 0.00in /  0mm 0.0 W/m2
06:37 46.9 °F /  8.3 °C 23.9 °F /  -4.5 °C 30.35in /  1027.7hPa Calm   4.0mph /  6.4km/h 40% 0.00in /  0mm 5.0 W/m2
06:43 47.5 °F /  8.6 °C 23.7 °F /  -4.6 °C 30.36in /  1028hPa Calm   3.0mph /  4.8km/h 39% 0.00in /  0mm 9.0 W/m2
06:49 47.7 °F /  8.7 °C 23.9 °F /  -4.5 °C 30.35in /  1027.7hPa Calm   2.0mph /  3.2km/h 39% 0.00in /  0mm 12.0 W/m2
06:56 48.0 °F /  8.9 °C 24.3 °F /  -4.3 °C 30.36in /  1028hPa Calm   8.0mph /  12.9km/h 39% 0.00in /  0mm 16.0 W/m2
07:02 48.6 °F /  9.2 °C 24.1 °F /  -4.4 °C 30.37in /  1028.3hPa Calm   7.0mph /  11.3km/h 38% 0.00in /  0mm 18.0 W/m2
07:08 49.3 °F /  9.6 °C 24.1 °F /  -4.4 °C 30.36in /  1028hPa Calm   5.0mph /  8km/h 37% 0.00in /  0mm 21.0 W/m2
07:14 49.5 °F /  9.7 °C 24.3 °F /  -4.3 °C 30.37in /  1028.3hPa Calm   7.0mph /  11.3km/h 37% 0.00in /  0mm 23.0 W/m2
07:20 49.8 °F /  9.9 °C 24.6 °F /  -4.1 °C 30.37in /  1028.3hPa East 2.9mph /  4.7km/h 4.0mph /  6.4km/h 37% 0.00in /  0mm 26.0 W/m2
07:26 50.2 °F /  10.1 °C 25.0 °F /  -3.9 °C 30.37in /  1028.3hPa East 7.0mph /  11.3km/h 7.0mph /  11.3km/h 37% 0.00in /  0mm 28.0 W/m2
07:32 50.7 °F /  10.4 °C 24.8 °F /  -4 °C 30.37in /  1028.3hPa ENE 0.9mph /  1.4km/h 3.0mph /  4.8km/h 36% 0.00in /  0mm 32.0 W/m2
07:38 51.3 °F /  10.7 °C 25.2 °F /  -3.8 °C 30.37in /  1028.3hPa Calm   8.0mph /  12.9km/h 36% 0.00in /  0mm 33.0 W/m2
07:44 52.0 °F /  11.1 °C 25.2 °F /  -3.8 °C 30.37in /  1028.3hPa Calm   9.0mph /  14.5km/h 35% 0.00in /  0mm 35.0 W/m2
07:50 52.5 °F /  11.4 °C 25.7 °F /  -3.5 °C 30.37in /  1028.3hPa ENE 2.0mph /  3.2km/h 10.0mph /  16.1km/h 35% 0.00in /  0mm 37.0 W/m2
07:56 53.4 °F /  11.9 °C 25.0 °F /  -3.9 °C 30.37in /  1028.3hPa ESE 2.9mph /  4.7km/h 16.0mph /  25.7km/h 33% 0.00in /  0mm 104.0 W/m2
08:02 54.1 °F /  12.3 °C 25.7 °F /  -3.5 °C 30.37in /  1028.3hPa Calm   12.0mph /  19.3km/h 33% 0.00in /  0mm 227.0 W/m2
08:08 54.9 °F /  12.7 °C 25.5 °F /  -3.6 °C 30.37in /  1028.3hPa Calm   10.0mph /  16.1km/h 32% 0.00in /  0mm 251.0 W/m2
08:14 55.8 °F /  13.2 °C 25.5 °F /  -3.6 °C 30.37in /  1028.3hPa Calm   8.0mph /  12.9km/h 31% 0.00in /  0mm 269.0 W/m2
08:20 56.3 °F /  13.5 °C 26.1 °F /  -3.3 °C 30.37in /  1028.3hPa NE 4.9mph /  7.9km/h 7.0mph /  11.3km/h 31% 0.00in /  0mm 285.0 W/m2
08:26 56.8 °F /  13.8 °C 25.7 °F /  -3.5 °C 30.37in /  1028.3hPa NE 0.9mph /  1.4km/h 4.0mph /  6.4km/h 30% 0.00in /  0mm 306.0 W/m2
08:32 57.4 °F /  14.1 °C 26.2 °F /  -3.2 °C 30.37in /  1028.3hPa NNE 2.0mph /  3.2km/h 6.0mph /  9.7km/h 30% 0.00in /  0mm 322.0 W/m2
08:38 57.7 °F /  14.3 °C 26.4 °F /  -3.1 °C 30.37in /  1028.3hPa ESE 6.0mph /  9.7km/h 8.0mph /  12.9km/h 30% 0.00in /  0mm 343.0 W/m2
08:44 58.3 °F /  14.6 °C 27.0 °F /  -2.8 °C 30.37in /  1028.3hPa Calm   10.0mph /  16.1km/h 30% 0.00in /  0mm 359.0 W/m2
08:50 58.8 °F /  14.9 °C 27.5 °F /  -2.5 °C 30.37in /  1028.3hPa East 0.9mph /  1.4km/h 11.0mph /  17.7km/h 30% 0.00in /  0mm 378.0 W/m2
08:56 59.2 °F /  15.1 °C 27.7 °F /  -2.4 °C 30.37in /  1028.3hPa East 8.1mph /  13km/h 10.0mph /  16.1km/h 30% 0.00in /  0mm 394.0 W/m2
09:02 59.7 °F /  15.4 °C 28.9 °F /  -1.7 °C 30.37in /  1028.3hPa ENE 2.9mph /  4.7km/h 8.0mph /  12.9km/h 31% 0.00in /  0mm 410.0 W/m2
09:08 60.4 °F /  15.8 °C 28.9 °F /  -1.7 °C 30.37in /  1028.3hPa East 2.9mph /  4.7km/h 9.0mph /  14.5km/h 30% 0.00in /  0mm 427.0 W/m2
09:14 61.0 °F /  16.1 °C 29.3 °F /  -1.5 °C 30.37in /  1028.3hPa Calm   6.0mph /  9.7km/h 30% 0.00in /  0mm 441.0 W/m2
09:20 61.5 °F /  16.4 °C 29.8 °F /  -1.2 °C 30.37in /  1028.3hPa Calm   7.0mph /  11.3km/h 30% 0.00in /  0mm 457.0 W/m2
09:26 62.1 °F /  16.7 °C 31.1 °F /  -0.5 °C 30.36in /  1028hPa ENE 2.9mph /  4.7km/h 7.0mph /  11.3km/h 31% 0.00in /  0mm 471.0 W/m2
09:32 62.8 °F /  17.1 °C 31.6 °F /  -0.2 °C 30.36in /  1028hPa NNE 4.0mph /  6.4km/h 6.0mph /  9.7km/h 31% 0.00in /  0mm 485.0 W/m2
09:38 63.3 °F /  17.4 °C 32.2 °F /  0.1 °C 30.36in /  1028hPa Calm   7.0mph /  11.3km/h 31% 0.00in /  0mm 499.0 W/m2
09:44 64.0 °F /  17.8 °C 32.7 °F /  0.4 °C 30.36in /  1028hPa ENE 6.0mph /  9.7km/h 8.0mph /  12.9km/h 31% 0.00in /  0mm 512.0 W/m2
09:50 64.8 °F /  18.2 °C 33.4 °F /  0.8 °C 30.35in /  1027.7hPa Calm   6.0mph /  9.7km/h 31% 0.00in /  0mm 526.0 W/m2
09:56 65.1 °F /  18.4 °C 33.8 °F /  1 °C 30.35in /  1027.7hPa Calm   8.0mph /  12.9km/h 31% 0.00in /  0mm 540.0 W/m2
10:02 65.8 °F /  18.8 °C 34.3 °F /  1.3 °C 30.35in /  1027.7hPa Calm   4.0mph /  6.4km/h 31% 0.00in /  0mm 548.0 W/m2
10:08 66.6 °F /  19.2 °C 35.1 °F /  1.7 °C 30.35in /  1027.7hPa NNE 4.0mph /  6.4km/h 6.0mph /  9.7km/h 31% 0.00in /  0mm 561.0 W/m2
10:14 67.1 °F /  19.5 °C 35.4 °F /  1.9 °C 30.35in /  1027.7hPa North 6.0mph /  9.7km/h 6.0mph /  9.7km/h 31% 0.00in /  0mm 568.0 W/m2
10:20 67.6 °F /  19.8 °C 35.1 °F /  1.7 °C 30.34in /  1027.3hPa Calm   5.0mph /  8km/h 30% 0.00in /  0mm 578.0 W/m2
10:26 68.0 °F /  20 °C 35.4 °F /  1.9 °C 30.34in /  1027.3hPa Calm   6.0mph /  9.7km/h 30% 0.00in /  0mm 584.0 W/m2
10:34 68.5 °F /  20.3 °C 35.1 °F /  1.7 °C 30.34in /  1027.3hPa Calm   6.0mph /  9.7km/h 29% 0.00in /  0mm 596.0 W/m2
10:40 69.1 °F /  20.6 °C 35.4 °F /  1.9 °C 30.34in /  1027.3hPa NW 2.9mph /  4.7km/h 4.0mph /  6.4km/h 29% 0.00in /  0mm 603.0 W/m2
10:46 69.4 °F /  20.8 °C 35.8 °F /  2.1 °C 30.34in /  1027.3hPa Calm   3.0mph /  4.8km/h 29% 0.00in /  0mm 612.0 W/m2
10:52 70.0 °F /  21.1 °C 36.3 °F /  2.4 °C 30.33in /  1027hPa Calm   2.0mph /  3.2km/h 29% 0.00in /  0mm 615.0 W/m2
10:58 70.5 °F /  21.4 °C 34.9 °F /  1.6 °C 30.33in /  1027hPa NNE 2.9mph /  4.7km/h 4.0mph /  6.4km/h 27% 0.00in /  0mm 621.0 W/m2
11:04 71.1 °F /  21.7 °C 35.4 °F /  1.9 °C 30.33in /  1027hPa North 0.9mph /  1.4km/h 4.0mph /  6.4km/h 27% 0.00in /  0mm 629.0 W/m2
11:10 71.6 °F /  22 °C 34.9 °F /  1.6 °C 30.32in /  1026.6hPa NNW 0.9mph /  1.4km/h 6.0mph /  9.7km/h 26% 0.00in /  0mm 638.0 W/m2
11:16 72.0 °F /  22.2 °C 35.2 °F /  1.8 °C 30.32in /  1026.6hPa Calm   7.0mph /  11.3km/h 26% 0.00in /  0mm 640.0 W/m2
11:22 72.1 °F /  22.3 °C 36.3 °F /  2.4 °C 30.31in /  1026.3hPa WNW 2.0mph /  3.2km/h 2.0mph /  3.2km/h 27% 0.00in /  0mm 640.0 W/m2
11:28 72.1 °F /  22.3 °C 35.4 °F /  1.9 °C 30.31in /  1026.3hPa WNW 0.9mph /  1.4km/h 2.0mph /  3.2km/h 26% 0.00in /  0mm 643.0 W/m2
11:34 72.1 °F /  22.3 °C 35.4 °F /  1.9 °C 30.31in /  1026.3hPa Calm   6.0mph /  9.7km/h 26% 0.00in /  0mm 649.0 W/m2
11:40 72.3 °F /  22.4 °C 34.5 °F /  1.4 °C 30.30in /  1026hPa NW 2.9mph /  4.7km/h 7.0mph /  11.3km/h 25% 0.00in /  0mm 649.0 W/m2
11:46 72.7 °F /  22.6 °C 33.8 °F /  1 °C 30.30in /  1026hPa NNW 6.9mph /  11.1km/h 12.0mph /  19.3km/h 24% 0.00in /  0mm 649.0 W/m2
11:52 72.9 °F /  22.7 °C 34.0 °F /  1.1 °C 30.29in /  1025.6hPa NW 2.0mph /  3.2km/h 7.0mph /  11.3km/h 24% 0.00in /  0mm 647.0 W/m2
11:58 73.0 °F /  22.8 °C 33.1 °F /  0.6 °C 30.29in /  1025.6hPa WNW 4.0mph /  6.4km/h 9.0mph /  14.5km/h 23% 0.00in /  0mm 650.0 W/m2
12:04 72.9 °F /  22.7 °C 31.8 °F /  -0.1 °C 30.29in /  1025.6hPa Calm   12.0mph /  19.3km/h 22% 0.00in /  0mm 645.0 W/m2
12:10 72.9 °F /  22.7 °C 32.9 °F /  0.5 °C 30.28in /  1025.3hPa Calm   7.0mph /  11.3km/h 23% 0.00in /  0mm 635.0 W/m2
12:12 73.0 °F /  22.8 °C 34.2 °F /  1.2 °C 30.28in /  1025.3hPa NNW 2.0mph /  3.2km/h 5.0mph /  8km/h 24% 0.00in /  0mm 638.0 W/m2
12:18 72.9 °F /  22.7 °C 34.0 °F /  1.1 °C 30.28in /  1025.3hPa NW 4.0mph /  6.4km/h 16.0mph /  25.7km/h 24% 0.00in /  0mm 640.0 W/m2
12:24 72.9 °F /  22.7 °C 32.9 °F /  0.5 °C 30.28in /  1025.3hPa NNE 6.0mph /  9.7km/h 8.0mph /  12.9km/h 23% 0.00in /  0mm 647.0 W/m2
12:30 72.9 °F /  22.7 °C 34.0 °F /  1.1 °C 30.27in /  1024.9hPa West 8.9mph /  14.3km/h 10.0mph /  16.1km/h 24% 0.00in /  0mm 638.0 W/m2
12:36 73.0 °F /  22.8 °C 33.1 °F /  0.6 °C 30.27in /  1024.9hPa North 8.1mph /  13km/h 20.0mph /  32.2km/h 23% 0.00in /  0mm 622.0 W/m2
12:42 72.7 °F /  22.6 °C 31.6 °F /  -0.2 °C 30.26in /  1024.6hPa NW 4.0mph /  6.4km/h 15.0mph /  24.1km/h 22% 0.00in /  0mm 612.0 W/m2
12:48 72.7 °F /  22.6 °C 30.6 °F /  -0.8 °C 30.26in /  1024.6hPa NNW 4.9mph /  7.9km/h 14.0mph /  22.5km/h 21% 0.00in /  0mm 619.0 W/m2
12:54 72.7 °F /  22.6 °C 29.3 °F /  -1.5 °C 30.26in /  1024.6hPa NE 8.1mph /  13km/h 8.1mph /  13km/h 20% 0.00in /  0mm 605.0 W/m2
13:00 72.7 °F /  22.6 °C 28.0 °F /  -2.2 °C 30.26in /  1024.6hPa North 2.9mph /  4.7km/h 15.0mph /  24.1km/h 19% 0.00in /  0mm 598.0 W/m2
13:06 72.9 °F /  22.7 °C 30.6 °F /  -0.8 °C 30.26in /  1024.6hPa NNW 6.0mph /  9.7km/h 10.0mph /  16.1km/h 21% 0.00in /  0mm 585.0 W/m2
13:12 72.7 °F /  22.6 °C 29.3 °F /  -1.5 °C 30.26in /  1024.6hPa NNW 6.9mph /  11.1km/h 7.0mph /  11.3km/h 20% 0.00in /  0mm 591.0 W/m2
13:18 72.5 °F /  22.5 °C 31.5 °F /  -0.3 °C 30.26in /  1024.6hPa NW 8.1mph /  13km/h 20.0mph /  32.2km/h 22% 0.00in /  0mm 573.0 W/m2
13:24 72.3 °F /  22.4 °C 31.3 °F /  -0.4 °C 30.25in /  1024.3hPa NNW 2.9mph /  4.7km/h 9.0mph /  14.5km/h 22% 0.00in /  0mm 563.0 W/m2
13:30 72.7 °F /  22.6 °C 30.6 °F /  -0.8 °C 30.25in /  1024.3hPa NNE 6.0mph /  9.7km/h 17.0mph /  27.4km/h 21% 0.00in /  0mm 561.0 W/m2
13:36 72.7 °F /  22.6 °C 29.3 °F /  -1.5 °C 30.25in /  1024.3hPa NW 8.1mph /  13km/h 13.0mph /  20.9km/h 20% 0.00in /  0mm 561.0 W/m2
13:42 72.7 °F /  22.6 °C 29.3 °F /  -1.5 °C 30.25in /  1024.3hPa NNE 2.0mph /  3.2km/h 9.0mph /  14.5km/h 20% 0.00in /  0mm 547.0 W/m2
13:48 72.7 °F /  22.6 °C 29.3 °F /  -1.5 °C 30.25in /  1024.3hPa NNW 6.0mph /  9.7km/h 9.0mph /  14.5km/h 20% 0.00in /  0mm 519.0 W/m2
13:54 72.7 °F /  22.6 °C 30.6 °F /  -0.8 °C 30.24in /  1023.9hPa North 8.9mph /  14.3km/h 12.0mph /  19.3km/h 21% 0.00in /  0mm 522.0 W/m2
14:00 72.5 °F /  22.5 °C 29.1 °F /  -1.6 °C 30.25in /  1024.3hPa North 4.9mph /  7.9km/h 12.0mph /  19.3km/h 20% 0.00in /  0mm 506.0 W/m2
14:06 72.5 °F /  22.5 °C 30.4 °F /  -0.9 °C 30.24in /  1023.9hPa NNW 4.0mph /  6.4km/h 7.0mph /  11.3km/h 21% 0.00in /  0mm 492.0 W/m2
14:13 72.7 °F /  22.6 °C 30.6 °F /  -0.8 °C 30.24in /  1023.9hPa NW 4.0mph /  6.4km/h 9.0mph /  14.5km/h 21% 0.00in /  0mm 476.0 W/m2
14:18 72.9 °F /  22.7 °C 30.6 °F /  -0.8 °C 30.24in /  1023.9hPa NNW 4.0mph /  6.4km/h 7.0mph /  11.3km/h 21% 0.00in /  0mm 471.0 W/m2
14:24 73.0 °F /  22.8 °C 28.4 °F /  -2 °C 30.25in /  1024.3hPa West 0.9mph /  1.4km/h 9.0mph /  14.5km/h 19% 0.00in /  0mm 455.0 W/m2
14:30 73.2 °F /  22.9 °C 28.4 °F /  -2 °C 30.25in /  1024.3hPa WNW 6.9mph /  11.1km/h 10.0mph /  16.1km/h 19% 0.00in /  0mm 434.0 W/m2
14:37 73.0 °F /  22.8 °C 28.4 °F /  -2 °C 30.25in /  1024.3hPa NW 6.9mph /  11.1km/h 12.0mph /  19.3km/h 19% 0.00in /  0mm 417.0 W/m2
14:42 73.0 °F /  22.8 °C 28.4 °F /  -2 °C 30.24in /  1023.9hPa NNE 6.0mph /  9.7km/h 7.0mph /  11.3km/h 19% 0.00in /  0mm 408.0 W/m2
14:48 73.0 °F /  22.8 °C 28.4 °F /  -2 °C 30.24in /  1023.9hPa Calm   8.0mph /  12.9km/h 19% 0.00in /  0mm 392.0 W/m2
14:55 73.0 °F /  22.8 °C 28.4 °F /  -2 °C 30.24in /  1023.9hPa NW 4.0mph /  6.4km/h 9.0mph /  14.5km/h 19% 0.00in /  0mm 381.0 W/m2
15:00 72.9 °F /  22.7 °C 27.0 °F /  -2.8 °C 30.24in /  1023.9hPa North 0.9mph /  1.4km/h 14.0mph /  22.5km/h 18% 0.00in /  0mm 362.0 W/m2
15:07 72.7 °F /  22.6 °C 28.0 °F /  -2.2 °C 30.24in /  1023.9hPa Calm   6.0mph /  9.7km/h 19% 0.00in /  0mm 348.0 W/m2
15:12 72.5 °F /  22.5 °C 27.9 °F /  -2.3 °C 30.24in /  1023.9hPa NW 2.0mph /  3.2km/h 9.0mph /  14.5km/h 19% 0.00in /  0mm 323.0 W/m2
15:19 72.3 °F /  22.4 °C 28.9 °F /  -1.7 °C 30.24in /  1023.9hPa WNW 2.9mph /  4.7km/h 7.0mph /  11.3km/h 20% 0.00in /  0mm 302.0 W/m2
15:25 72.0 °F /  22.2 °C 28.8 °F /  -1.8 °C 30.25in /  1024.3hPa WNW 2.9mph /  4.7km/h 11.0mph /  17.7km/h 20% 0.00in /  0mm 62.0 W/m2
15:31 71.8 °F /  22.1 °C 28.6 °F /  -1.9 °C 30.24in /  1023.9hPa NNW 6.0mph /  9.7km/h 14.0mph /  22.5km/h 20% 0.00in /  0mm 56.0 W/m2
15:37 71.4 °F /  21.9 °C 29.5 °F /  -1.4 °C 30.25in /  1024.3hPa NNW 6.0mph /  9.7km/h 6.0mph /  9.7km/h 21% 0.00in /  0mm 53.0 W/m2
15:43 71.2 °F /  21.8 °C 29.3 °F /  -1.5 °C 30.25in /  1024.3hPa North 8.9mph /  14.3km/h 9.0mph /  14.5km/h 21% 0.00in /  0mm 51.0 W/m2
15:52 71.2 °F /  21.8 °C 30.4 °F /  -0.9 °C 30.25in /  1024.3hPa Calm   3.0mph /  4.8km/h 22% 0.00in /  0mm 47.0 W/m2
15:57 71.1 °F /  21.7 °C 29.1 °F /  -1.6 °C 30.25in /  1024.3hPa NW 4.9mph /  7.9km/h 7.0mph /  11.3km/h 21% 0.00in /  0mm 46.0 W/m2
16:03 70.5 °F /  21.4 °C 28.8 °F /  -1.8 °C 30.25in /  1024.3hPa NW 2.9mph /  4.7km/h 11.0mph /  17.7km/h 21% 0.00in /  0mm 42.0 W/m2
16:09 70.3 °F /  21.3 °C 28.6 °F /  -1.9 °C 30.25in /  1024.3hPa North 0.9mph /  1.4km/h 8.0mph /  12.9km/h 21% 0.00in /  0mm 37.0 W/m2
16:15 70.2 °F /  21.2 °C 28.4 °F /  -2 °C 30.26in /  1024.6hPa NNW 2.9mph /  4.7km/h 6.0mph /  9.7km/h 21% 0.00in /  0mm 33.0 W/m2
16:21 70.0 °F /  21.1 °C 29.3 °F /  -1.5 °C 30.26in /  1024.6hPa NNE 2.9mph /  4.7km/h 7.0mph /  11.3km/h 22% 0.00in /  0mm 30.0 W/m2
16:27 69.6 °F /  20.9 °C 29.1 °F /  -1.6 °C 30.26in /  1024.6hPa NNW 4.9mph /  7.9km/h 10.0mph /  16.1km/h 22% 0.00in /  0mm 28.0 W/m2
16:33 69.4 °F /  20.8 °C 28.9 °F /  -1.7 °C 30.26in /  1024.6hPa ENE 6.9mph /  11.1km/h 9.0mph /  14.5km/h 22% 0.00in /  0mm 26.0 W/m2
16:39 69.3 °F /  20.7 °C 28.8 °F /  -1.8 °C 30.26in /  1024.6hPa East 2.9mph /  4.7km/h 8.0mph /  12.9km/h 22% 0.00in /  0mm 23.0 W/m2
16:45 69.1 °F /  20.6 °C 28.6 °F /  -1.9 °C 30.26in /  1024.6hPa NE 2.9mph /  4.7km/h 9.0mph /  14.5km/h 22% 0.00in /  0mm 21.0 W/m2
16:51 68.7 °F /  20.4 °C 28.4 °F /  -2 °C 30.26in /  1024.6hPa NNW 4.9mph /  7.9km/h 7.0mph /  11.3km/h 22% 0.00in /  0mm 18.0 W/m2
16:57 68.7 °F /  20.4 °C 28.4 °F /  -2 °C 30.26in /  1024.6hPa NNE 6.0mph /  9.7km/h 7.0mph /  11.3km/h 22% 0.00in /  0mm 14.0 W/m2
17:03 68.4 °F /  20.2 °C 28.0 °F /  -2.2 °C 30.26in /  1024.6hPa NNE 6.0mph /  9.7km/h 7.0mph /  11.3km/h 22% 0.00in /  0mm 11.0 W/m2
17:09 68.2 °F /  20.1 °C 28.9 °F /  -1.7 °C 30.26in /  1024.6hPa NNW 2.0mph /  3.2km/h 5.0mph /  8km/h 23% 0.00in /  0mm 7.0 W/m2
17:15 67.8 °F /  19.9 °C 28.6 °F /  -1.9 °C 30.27in /  1024.9hPa NE 0.9mph /  1.4km/h 6.0mph /  9.7km/h 23% 0.00in /  0mm 0.0 W/m2
17:21 67.5 °F /  19.7 °C 28.4 °F /  -2 °C 30.27in /  1024.9hPa NE 0.9mph /  1.4km/h 3.0mph /  4.8km/h 23% 0.00in /  0mm 0.0 W/m2
17:27 67.1 °F /  19.5 °C 29.1 °F /  -1.6 °C 30.27in /  1024.9hPa ENE 0.9mph /  1.4km/h 4.0mph /  6.4km/h 24% 0.00in /  0mm 0.0 W/m2
17:33 66.7 °F /  19.3 °C 28.8 °F /  -1.8 °C 30.27in /  1024.9hPa North 0.9mph /  1.4km/h 4.0mph /  6.4km/h 24% 0.00in /  0mm 0.0 W/m2
17:39 66.4 °F /  19.1 °C 28.4 °F /  -2 °C 30.27in /  1024.9hPa North 0.9mph /  1.4km/h 4.0mph /  6.4km/h 24% 0.00in /  0mm 0.0 W/m2
17:46 65.8 °F /  18.8 °C 28.9 °F /  -1.7 °C 30.27in /  1024.9hPa ENE 0.9mph /  1.4km/h 4.0mph /  6.4km/h 25% 0.00in /  0mm 0.0 W/m2
17:51 65.5 °F /  18.6 °C 28.8 °F /  -1.8 °C 30.27in /  1024.9hPa NE 0.9mph /  1.4km/h 2.0mph /  3.2km/h 25% 0.00in /  0mm 0.0 W/m2
17:57 64.9 °F /  18.3 °C 29.3 °F /  -1.5 °C 30.27in /  1024.9hPa NNE 2.0mph /  3.2km/h 4.0mph /  6.4km/h 26% 0.00in /  0mm 0.0 W/m2
18:03 64.4 °F /  18 °C 28.8 °F /  -1.8 °C 30.27in /  1024.9hPa NE 2.0mph /  3.2km/h 3.0mph /  4.8km/h 26% 0.00in /  0mm 0.0 W/m2
18:09 63.9 °F /  17.7 °C 28.2 °F /  -2.1 °C 30.27in /  1024.9hPa NE 0.9mph /  1.4km/h 2.0mph /  3.2km/h 26% 0.00in /  0mm 0.0 W/m2
18:15 63.1 °F /  17.3 °C 28.6 °F /  -1.9 °C 30.28in /  1025.3hPa NE 2.9mph /  4.7km/h 4.0mph /  6.4km/h 27% 0.00in /  0mm 0.0 W/m2
18:21 62.6 °F /  17 °C 28.2 °F /  -2.1 °C 30.28in /  1025.3hPa ENE 0.9mph /  1.4km/h 2.0mph /  3.2km/h 27% 0.00in /  0mm 0.0 W/m2
18:27 61.9 °F /  16.6 °C 28.4 °F /  -2 °C 30.28in /  1025.3hPa ENE 2.0mph /  3.2km/h 3.0mph /  4.8km/h 28% 0.00in /  0mm 0.0 W/m2
18:33 61.3 °F /  16.3 °C 28.8 °F /  -1.8 °C 30.28in /  1025.3hPa ENE 2.0mph /  3.2km/h 4.0mph /  6.4km/h 29% 0.00in /  0mm 0.0 W/m2
18:39 60.8 °F /  16 °C 28.4 °F /  -2 °C 30.28in /  1025.3hPa Calm   3.0mph /  4.8km/h 29% 0.00in /  0mm 0.0 W/m2
18:45 60.3 °F /  15.7 °C 28.8 °F /  -1.8 °C 30.28in /  1025.3hPa Calm   3.0mph /  4.8km/h 30% 0.00in /  0mm 0.0 W/m2
18:51 59.9 °F /  15.5 °C 28.4 °F /  -2 °C 30.28in /  1025.3hPa Calm   3.0mph /  4.8km/h 30% 0.00in /  0mm 0.0 W/m2
19:00 59.4 °F /  15.2 °C 27.9 °F /  -2.3 °C 30.29in /  1025.6hPa Calm   3.0mph /  4.8km/h 30% 0.00in /  0mm 0.0 W/m2
19:06 59.2 °F /  15.1 °C 28.6 °F /  -1.9 °C 30.29in /  1025.6hPa Calm   3.0mph /  4.8km/h 31% 0.00in /  0mm 0.0 W/m2
19:12 58.8 °F /  14.9 °C 28.2 °F /  -2.1 °C 30.29in /  1025.6hPa NE 0.9mph /  1.4km/h 3.0mph /  4.8km/h 31% 0.00in /  0mm 0.0 W/m2
19:18 58.5 °F /  14.7 °C 28.8 °F /  -1.8 °C 30.29in /  1025.6hPa Calm   2.0mph /  3.2km/h 32% 0.00in /  0mm 0.0 W/m2
19:24 58.3 °F /  14.6 °C 28.6 °F /  -1.9 °C 30.29in /  1025.6hPa Calm   2.0mph /  3.2km/h 32% 0.00in /  0mm 0.0 W/m2
19:30 57.7 °F /  14.3 °C 28.0 °F /  -2.2 °C 30.29in /  1025.6hPa Calm   2.0mph /  3.2km/h 32% 0.00in /  0mm 0.0 W/m2
19:36 57.6 °F /  14.2 °C 28.6 °F /  -1.9 °C 30.29in /  1025.6hPa Calm   1.0mph /  1.6km/h 33% 0.00in /  0mm 0.0 W/m2
19:42 57.0 °F /  13.9 °C 28.2 °F /  -2.1 °C 30.29in /  1025.6hPa Calm   2.0mph /  3.2km/h 33% 0.00in /  0mm 0.0 W/m2
19:48 56.7 °F /  13.7 °C 28.6 °F /  -1.9 °C 30.30in /  1026hPa Calm     34% 0.00in /  0mm 0.0 W/m2
19:54 56.3 °F /  13.5 °C 28.2 °F /  -2.1 °C 30.30in /  1026hPa Calm   1.0mph /  1.6km/h 34% 0.00in /  0mm 0.0 W/m2
20:00 55.9 °F /  13.3 °C 28.8 °F /  -1.8 °C 30.30in /  1026hPa Calm   1.0mph /  1.6km/h 35% 0.00in /  0mm 0.0 W/m2
20:06 55.6 °F /  13.1 °C 28.4 °F /  -2 °C 30.30in /  1026hPa Calm   1.0mph /  1.6km/h 35% 0.00in /  0mm 0.0 W/m2
20:13 55.0 °F /  12.8 °C 28.6 °F /  -1.9 °C 30.30in /  1026hPa Calm     36% 0.00in /  0mm 0.0 W/m2
20:19 54.9 °F /  12.7 °C 28.4 °F /  -2 °C 30.31in /  1026.3hPa Calm     36% 0.00in /  0mm 0.0 W/m2
20:25 54.3 °F /  12.4 °C 28.6 °F /  -1.9 °C 30.31in /  1026.3hPa East 0.9mph /  1.4km/h 2.0mph /  3.2km/h 37% 0.00in /  0mm 0.0 W/m2
20:31 54.1 °F /  12.3 °C 29.1 °F /  -1.6 °C 30.31in /  1026.3hPa Calm   2.0mph /  3.2km/h 38% 0.00in /  0mm 0.0 W/m2
20:37 54.0 °F /  12.2 °C 28.9 °F /  -1.7 °C 30.31in /  1026.3hPa Calm   1.0mph /  1.6km/h 38% 0.00in /  0mm 0.0 W/m2
20:43 53.8 °F /  12.1 °C 28.8 °F /  -1.8 °C 30.31in /  1026.3hPa ESE 2.0mph /  3.2km/h 3.0mph /  4.8km/h 38% 0.00in /  0mm 0.0 W/m2
20:49 53.6 °F /  12 °C 29.3 °F /  -1.5 °C 30.31in /  1026.3hPa Calm     39% 0.00in /  0mm 0.0 W/m2
20:55 53.6 °F /  12 °C 29.3 °F /  -1.5 °C 30.32in /  1026.6hPa Calm     39% 0.00in /  0mm 0.0 W/m2
21:01 53.4 °F /  11.9 °C 29.1 °F /  -1.6 °C 30.32in /  1026.6hPa Calm   1.0mph /  1.6km/h 39% 0.00in /  0mm 0.0 W/m2
21:08 53.2 °F /  11.8 °C 28.9 °F /  -1.7 °C 30.32in /  1026.6hPa Calm     39% 0.00in /  0mm 0.0 W/m2
21:14 52.9 °F /  11.6 °C 29.3 °F /  -1.5 °C 30.32in /  1026.6hPa Calm   1.0mph /  1.6km/h 40% 0.00in /  0mm 0.0 W/m2
21:20 52.7 °F /  11.5 °C 29.7 °F /  -1.3 °C 30.32in /  1026.6hPa Calm     41% 0.00in /  0mm 0.0 W/m2
21:26 52.3 °F /  11.3 °C 29.3 °F /  -1.5 °C 30.32in /  1026.6hPa Calm   1.0mph /  1.6km/h 41% 0.00in /  0mm 0.0 W/m2
21:32 52.2 °F /  11.2 °C 29.1 °F /  -1.6 °C 30.32in /  1026.6hPa Calm     41% 0.00in /  0mm 0.0 W/m2
21:38 51.8 °F /  11 °C 29.5 °F /  -1.4 °C 30.32in /  1026.6hPa Calm   2.0mph /  3.2km/h 42% 0.00in /  0mm 0.0 W/m2
21:44 51.6 °F /  10.9 °C 29.8 °F /  -1.2 °C 30.32in /  1026.6hPa ESE 0.9mph /  1.4km/h 4.0mph /  6.4km/h 43% 0.00in /  0mm 0.0 W/m2
21:50 51.6 °F /  10.9 °C 29.8 °F /  -1.2 °C 30.32in /  1026.6hPa NE 2.0mph /  3.2km/h 2.0mph /  3.2km/h 43% 0.00in /  0mm 0.0 W/m2
21:57 51.6 °F /  10.9 °C 29.8 °F /  -1.2 °C 30.32in /  1026.6hPa East 0.9mph /  1.4km/h 2.0mph /  3.2km/h 43% 0.00in /  0mm 0.0 W/m2
22:03 51.8 °F /  11 °C 30.0 °F /  -1.1 °C 30.33in /  1027hPa East 0.9mph /  1.4km/h 2.0mph /  3.2km/h 43% 0.00in /  0mm 0.0 W/m2
22:09 52.2 °F /  11.2 °C 30.4 °F /  -0.9 °C 30.33in /  1027hPa Calm   1.0mph /  1.6km/h 43% 0.00in /  0mm 0.0 W/m2
22:15 52.5 °F /  11.4 °C 30.7 °F /  -0.7 °C 30.33in /  1027hPa ESE 2.0mph /  3.2km/h 2.0mph /  3.2km/h 43% 0.00in /  0mm 0.0 W/m2
22:21 52.9 °F /  11.6 °C 30.9 °F /  -0.6 °C 30.32in /  1026.6hPa Calm   1.0mph /  1.6km/h 43% 0.00in /  0mm 0.0 W/m2
22:27 53.2 °F /  11.8 °C 30.7 °F /  -0.7 °C 30.33in /  1027hPa East 0.9mph /  1.4km/h 2.0mph /  3.2km/h 42% 0.00in /  0mm 0.0 W/m2
22:33 53.8 °F /  12.1 °C 31.3 °F /  -0.4 °C 30.33in /  1027hPa Calm   3.0mph /  4.8km/h 42% 0.00in /  0mm 0.0 W/m2
22:39 54.0 °F /  12.2 °C 31.5 °F /  -0.3 °C 30.33in /  1027hPa Calm   3.0mph /  4.8km/h 42% 0.00in /  0mm 0.0 W/m2
22:45 54.1 °F /  12.3 °C 31.5 °F /  -0.3 °C 30.33in /  1027hPa Calm   4.0mph /  6.4km/h 42% 0.00in /  0mm 0.0 W/m2
22:52 54.3 °F /  12.4 °C 31.6 °F /  -0.2 °C 30.33in /  1027hPa ENE 0.9mph /  1.4km/h 1.0mph /  1.6km/h 42% 0.00in /  0mm 0.0 W/m2
22:58 54.3 °F /  12.4 °C 31.6 °F /  -0.2 °C 30.33in /  1027hPa Calm   1.0mph /  1.6km/h 42% 0.00in /  0mm 0.0 W/m2
23:04 54.5 °F /  12.5 °C 31.8 °F /  -0.1 °C 30.33in /  1027hPa NE 0.9mph /  1.4km/h 2.0mph /  3.2km/h 42% 0.00in /  0mm 0.0 W/m2
23:10 54.7 °F /  12.6 °C 32.5 °F /  0.3 °C 30.33in /  1027hPa NE 2.0mph /  3.2km/h 3.0mph /  4.8km/h 43% 0.00in /  0mm 0.0 W/m2
23:16 55.0 °F /  12.8 °C 33.4 °F /  0.8 °C 30.33in /  1027hPa NE 2.0mph /  3.2km/h 5.0mph /  8km/h 44% 0.00in /  0mm 0.0 W/m2
23:22 55.6 °F /  13.1 °C 34.0 °F /  1.1 °C 30.33in /  1027hPa NE 0.9mph /  1.4km/h 5.0mph /  8km/h 44% 0.00in /  0mm 0.0 W/m2
23:28 56.1 °F /  13.4 °C 34.0 °F /  1.1 °C 30.33in /  1027hPa NE 2.0mph /  3.2km/h 4.0mph /  6.4km/h 43% 0.00in /  0mm 0.0 W/m2
23:34 56.3 °F /  13.5 °C 34.2 °F /  1.2 °C 30.33in /  1027hPa Calm   2.0mph /  3.2km/h 43% 0.00in /  0mm 0.0 W/m2
23:40 56.1 °F /  13.4 °C 34.0 °F /  1.1 °C 30.33in /  1027hPa Calm   2.0mph /  3.2km/h 43% 0.00in /  0mm 0.0 W/m2
23:46 55.9 °F /  13.3 °C 33.3 °F /  0.7 °C 30.33in /  1027hPa Calm   1.0mph /  1.6km/h 42% 0.00in /  0mm 0.0 W/m2
23:52 55.6 °F /  13.1 °C 34.0 °F /  1.1 °C 30.33in /  1027hPa Calm     44% 0.00in /  0mm 0.0 W/m2
23:58 55.0 °F /  12.8 °C 33.4 °F /  0.8 °C 30.33in /  1027hPa Calm     44% 0.00in /  0mm 0.0 W/m2
Olympia, Windhoek, Namibia
Compliments of Weather Underground - 3 mb